deformed-offering

Nearby METAR Reports

 

KSJC - San Jose, California, USA
Distance from station: NE 9mi, 14km
Updated: Wed, 30-Sep-2020 5:53pm PDT
Smoke, Haze, Overcast
Smoke, Haze, Overcast
 Wind from NW
Wind: NW 7 mph , 11 km/h
Temperature: 84°F , 29°C
Dew Point: 54°F , 12°C
Humidity: 35%
Barometer: 29.98 inHg , 1015.2 hPa
Summary: Smoke, Haze
Clouds: Overcast
Visibility: 3 miles , 5 km
Cloud details: Few Clouds 100 ft
Mostly Cloudy 2300 ft
Overcast 5000 ft
2020/10/01 00:53 KSJC 010053Z 31006KT 3SM FU HZ FEW001 BKN023 OVC050 29/12 A2998 RMK AO2 SLP151 FU FEW001 FU BKN023 FU OVC050 T02940122
KRHV - San Jose/Reid, California, USA
Distance from station: ENE 12mi, 19km
Updated: Wed, 30-Sep-2020 5:47pm PDT
Smoke, Clear
Smoke, Clear
 Wind from NNW
Wind: NNW 7 mph , 11 km/h
Temperature: 88°F , 31°C
Dew Point: 55°F , 13°C
Humidity: 33%
Barometer: 29.99 inHg , 1015.6 hPa
Summary: Smoke
Clouds: Clear
Visibility: 6 miles , 10 km
2020/10/01 00:47 KRHV 010047Z 33006KT 6SM FU SKC 31/13 A2999
 
KPAO - Palo Alto, California, USA
Distance from station: NNW 14mi, 23km
Updated: Wed, 30-Sep-2020 6:47pm PDT
Smoke, Clear
Smoke, Clear
 Wind from NNW
Wind: NNW 5 mph , 7 km/h
Temperature: 73°F , 23°C
Dew Point: 57°F , 14°C
Humidity: 57%
Barometer: 29.98 inHg , 1015.2 hPa
Summary: Smoke
Clouds: Clear
Visibility: 6 miles , 10 km
2020/10/01 01:47 KPAO 010147Z 33004KT 6SM FU SKC 23/14 A2998 RMK LAST
KSQL - San Carlos Airpo, California, USA
Distance from station: NW 21mi, 34km
Updated: Wed, 30-Sep-2020 6:51pm PDT
Smoke, Haze, Clear
Smoke, Haze, Clear
 Wind from calm
Wind: Calm
Temperature: 81°F , 27°C
Heat Index: 82°F , 28°C
Dew Point: 63°F , 17°C
Humidity: 54%
Barometer: 29.98 inHg , 1015.2 hPa
Summary: Smoke, Haze
Clouds: Clear
Visibility: 5 miles , 8 km
2020/10/01 01:51 KSQL 010151Z 00000KT 5SM FU HZ SKC 27/17 A2998
 
KWVI - Watsonville, California, USA
Distance from station: SSE 27mi, 44km
Updated: Wed, 30-Sep-2020 5:53pm PDT
Clear
Clear
 Wind from S
Wind: S 5 mph , 7 km/h
Temperature: 66°F , 19°C
Dew Point: 57°F , 14°C
Humidity: 73%
Barometer: 29.98 inHg , 1015.2 hPa
Clouds: Clear
Visibility: 10 miles , 16 km
2020/10/01 00:53 KWVI 010053Z AUTO 18004KT 10SM CLR 19/14 A2998 RMK AO2 SLP153 T01940144
KHWD - Hayward, California, USA
Distance from station: N 28mi, 44km
Updated: Wed, 30-Sep-2020 5:54pm PDT
Haze, Smoke, Clear
Haze, Smoke, Clear
 Wind from W
Wind: W 5 mph , 7 km/h
Temperature: 79°F , 26°C
Dew Point: 61°F , 16°C
Humidity: 54%
Barometer: 29.98 inHg , 1015.2 hPa
Summary: Haze, Smoke
Clouds: Clear
Visibility: 4 miles , 6 km
2020/10/01 00:54 KHWD 010054Z 26004KT 4SM HZ FU CLR 26/16 A2998 RMK AO2 SLP159 T02610156
 
KSFO - San Francisco, California, USA
Distance from station: NW 30mi, 49km
Updated: Wed, 30-Sep-2020 5:56pm PDT
Few Clouds
Few Clouds
 Wind from WNW
Wind: WNW 16 mph , 26 km/h
Temperature: 79°F , 26°C
Dew Point: 50°F , 10°C
Humidity: 37%
Barometer: 29.97 inHg , 1014.9 hPa
Clouds: Few Clouds
Visibility: 9 miles , 14 km
Cloud details: Few Clouds 700 ft
2020/10/01 00:56 KSFO 010056Z 30014KT 9SM FEW007 26/10 A2997 RMK AO2 SLP148 FU FEW007 T02560100
KHAF - Half Moon Bay, California, USA
Distance from station: WNW 31mi, 50km
Updated: Wed, 30-Sep-2020 6:35pm PDT
Partly Cloudy
Partly Cloudy
 Wind from NW
Wind: NW 9 mph , 15 km/h
Temperature: 72°F , 22°C
Dew Point: 50°F , 10°C
Humidity: 47%
Barometer: 30.00 inHg , 1015.9 hPa
Clouds: Partly Cloudy
Visibility: 7 miles , 11 km
Cloud details: Partly Cloudy 1300 ft
2020/10/01 01:35 KHAF 010135Z AUTO 32008KT 7SM SCT013 22/10 A3000 RMK AO2
 
KLVK - Livermore, California, USA
Distance from station: NNE 31mi, 51km
Updated: Wed, 30-Sep-2020 5:53pm PDT
Haze, Smoke, Clear
Haze, Smoke, Clear
 Wind from WNW
Wind: WNW 7 mph , 11 km/h
Temperature: 99°F , 37°C
Dew Point: 39°F , 4°C
Humidity: 13%
Barometer: 29.96 inHg , 1014.6 hPa
Summary: Haze, Smoke
Clouds: Clear
Visibility: 4 miles , 6 km
2020/10/01 00:53 KLVK 010053Z 30006KT 4SM HZ FU CLR 37/04 A2996 RMK AO2 SLP140 T03670039
KOAK - Oakland, California, USA
Distance from station: NNW 33mi, 53km
Updated: Wed, 30-Sep-2020 5:53pm PDT
Haze, Smoke, Partly cloudy
Haze, Smoke, Partly cloudy
 Wind from WNW
Wind: WNW 7 mph , 11 km/h
Temperature: 81°F , 27°C
Heat Index: 82°F , 28°C
Dew Point: 61°F , 16°C
Humidity: 51%
Barometer: 29.98 inHg , 1015.2 hPa
Summary: Haze, Smoke
Clouds: Partly Cloudy
Visibility: 6 miles , 10 km
Cloud details: Few Clouds 1300 ft
Partly Cloudy 1900 ft
2020/10/01 00:53 KOAK 010053Z 29006KT 6SM HZ FU FEW013 SCT019 27/16 A2998 RMK AO2 SLP152 FU FEW013 FU SCT019 T02720156
 
KCVH - Hollister Muni, California, USA
Distance from station: SE 42mi, 68km
Updated: Wed, 30-Sep-2020 6:35pm PDT
Clear
Clear
 Wind from W
Wind: W 7 mph , 11 km/h, Gust: 14 mph , 22 km/h
Temperature: 88°F , 31°C
Dew Point: 52°F , 11°C
Humidity: 29%
Barometer: 29.97 inHg , 1014.9 hPa
Clouds: Clear
Visibility: 9 miles , 14 km
2020/10/01 01:35 KCVH 010135Z AUTO 28006G12KT 9SM CLR 31/11 A2997 RMK A01
KSNS - Salinas, California, USA
Distance from station: SSE 48mi, 77km
Updated: Wed, 30-Sep-2020 5:53pm PDT
Clear
Clear
 Wind from NNW
Wind: NNW 12 mph , 19 km/h
Temperature: 68°F , 20°C
Dew Point: 57°F , 14°C
Humidity: 69%
Barometer: 29.98 inHg , 1015.2 hPa
Clouds: Clear
Visibility: 9 miles , 14 km
2020/10/01 00:53 KSNS 010053Z 34010KT 9SM CLR 20/14 A2998 RMK AO2 SLP161 T02000139
 
KMRY - Monterey, California, USA
Distance from station: SSE 49mi, 78km
Updated: Wed, 30-Sep-2020 5:54pm PDT
Clear
Clear
 Wind from NNW
Wind: NNW 3 mph , 6 km/h
Barometer: 30.00 inHg , 1015.9 hPa
Clouds: Clear
Visibility: 8 miles , 13 km
2020/10/01 00:54 KMRY 010054Z 33003KT 8SM CLR A3000 RMK AO2 SLPNO $
KCCR - Concord, California, USA
Distance from station: N 50mi, 81km
Updated: Wed, 30-Sep-2020 5:53pm PDT
Haze, Smoke, Few clouds
Haze, Smoke, Few clouds
 Wind from W
Wind: W 5 mph , 7 km/h
Temperature: 93°F , 34°C
Dew Point: 50°F , 10°C
Humidity: 23%
Barometer: 29.96 inHg , 1014.6 hPa
Summary: Haze, Smoke
Clouds: Few Clouds
Visibility: 4 miles , 6 km
Cloud details: Few Clouds 11000 ft
2020/10/01 00:53 KCCR 010053Z AUTO 26004KT 4SM HZ FU FEW110 34/10 A2996 RMK AO2 SLP132 T03440100
deformed-offering